Time;durP1;ratioP1;P1;durP2;ratioP2;P2;SDS_P1;SDS_P2;PMS_P1;PMS_P2;Temp;Humidity;BMP_temperature;BMP_pressure;BME280_temperature;BME280_humidity;BME280_pressure;Samples;Min_cycle;Max_cycle;Signal;HPM_P1;HPM_P2
2022/05/09 00:02:22;;;;;;;6.20;5.60;;;14.80;87.10;;;;;;953536;147;27284;-73
2022/05/09 00:04:48;;;;;;;5.70;5.30;;;14.70;87.20;;;;;;954406;147;27368;-74
2022/05/09 00:07:15;;;;;;;6.73;5.53;;;14.70;87.50;;;;;;952876;147;27326;-73
2022/05/09 00:09:42;;;;;;;6.53;4.87;;;14.70;87.80;;;;;;953101;150;27443;-74
2022/05/09 00:12:08;;;;;;;7.10;5.40;;;14.60;88.10;;;;;;953580;150;27409;-73
2022/05/09 00:14:35;;;;;;;5.97;5.47;;;14.60;88.30;;;;;;953008;149;27975;-73
2022/05/09 00:17:02;;;;;;;4.90;4.50;;;14.60;88.60;;;;;;952513;149;27326;-74
2022/05/09 00:19:28;;;;;;;5.30;4.87;;;14.50;88.60;;;;;;953287;149;27400;-73
2022/05/09 00:21:55;;;;;;;7.17;5.40;;;14.50;88.80;;;;;;952976;149;27416;-73
2022/05/09 00:24:21;;;;;;;5.60;5.13;;;14.50;88.90;;;;;;953045;147;27318;-74
2022/05/09 00:26:48;;;;;;;5.97;5.37;;;14.40;89.20;;;;;;953041;147;27295;-73
2022/05/09 00:29:15;;;;;;;6.37;5.77;;;14.40;89.50;;;;;;954031;149;27350;-74
2022/05/09 00:31:43;;;;;;;6.00;5.50;;;14.40;89.80;;;;;;953257;149;27350;-74
2022/05/09 00:34:09;;;;;;;5.60;5.10;;;14.40;90.00;;;;;;954094;147;27429;-73
2022/05/09 00:36:34;;;;;;;6.63;5.70;;;14.40;90.10;;;;;;953246;149;27425;-74
2022/05/09 00:39:01;;;;;;;5.07;4.67;;;14.30;90.10;;;;;;956256;147;27479;-73
2022/05/09 00:41:39;;;;;;;5.93;5.33;;;14.30;90.10;;;;;;959906;148;27290;-74
2022/05/09 00:44:03;;;;;;;7.57;5.47;;;14.30;90.20;;;;;;959053;146;27416;-73
2022/05/09 00:46:29;;;;;;;6.47;5.87;;;14.30;90.20;;;;;;958996;146;27346;-74
2022/05/09 00:48:56;;;;;;;5.53;5.03;;;14.20;90.40;;;;;;959773;146;27307;-73
2022/05/09 00:51:23;;;;;;;5.93;5.47;;;14.20;90.50;;;;;;959863;146;27311;-74
2022/05/09 00:53:49;;;;;;;6.17;5.50;;;14.20;90.60;;;;;;958756;146;27342;-73
2022/05/09 00:56:16;;;;;;;6.40;5.80;;;14.20;90.60;;;;;;959666;146;27292;-73
2022/05/09 00:58:46;;;;;;;5.70;5.30;;;14.20;90.70;;;;;;958745;148;27424;-74
2022/05/09 01:01:12;;;;;;;6.47;5.87;;;14.20;90.80;;;;;;959295;146;27332;-74
2022/05/09 01:03:44;;;;;;;5.90;5.30;;;14.10;90.80;;;;;;959725;146;27444;-74
2022/05/09 01:06:11;;;;;;;6.13;5.47;;;14.10;90.90;;;;;;959672;146;27762;-73
2022/05/09 01:08:37;;;;;;;5.83;5.33;;;14.10;90.90;;;;;;959786;148;27377;-73
2022/05/09 01:11:04;;;;;;;5.87;5.30;;;14.10;91.00;;;;;;960309;146;27329;-73
2022/05/09 01:13:31;;;;;;;5.97;5.43;;;14.10;91.00;;;;;;958972;146;28462;-74
2022/05/09 01:15:58;;;;;;;8.17;4.83;;;14.00;91.20;;;;;;958908;146;27309;-74
2022/05/09 01:18:24;;;;;;;6.60;5.50;;;14.10;91.20;;;;;;960108;146;27299;-73
2022/05/09 01:20:50;;;;;;;5.63;5.13;;;14.00;91.20;;;;;;960054;146;27311;-73
2022/05/09 01:23:17;;;;;;;5.87;5.27;;;14.10;91.30;;;;;;959278;148;27335;-74
2022/05/09 01:25:43;;;;;;;5.90;5.37;;;14.00;91.30;;;;;;959022;148;27374;-74
2022/05/09 01:28:11;;;;;;;6.87;5.40;;;14.00;91.30;;;;;;958476;146;27288;-74
2022/05/09 01:30:48;;;;;;;6.13;5.50;;;14.00;91.30;;;;;;959920;146;27310;-73
2022/05/09 01:33:15;;;;;;;6.23;5.63;;;14.00;91.30;;;;;;958655;148;27338;-74
2022/05/09 01:35:45;;;;;;;6.27;5.77;;;13.90;91.30;;;;;;958655;149;27354;-73
2022/05/09 01:38:17;;;;;;;6.00;5.40;;;13.90;91.40;;;;;;958818;148;28427;-74
2022/05/09 01:40:44;;;;;;;5.50;5.00;;;13.90;91.50;;;;;;964420;145;27436;-73
2022/05/09 01:43:10;;;;;;;5.53;5.13;;;13.90;91.50;;;;;;964988;145;27324;-73
2022/05/09 01:45:37;;;;;;;6.00;5.03;;;13.80;91.50;;;;;;946489;149;27337;-73
2022/05/09 01:50:48;;;;;;;5.57;4.47;;;13.70;91.50;;;;;;942456;149;27396;-74
2022/05/09 01:53:15;;;;;;;5.97;5.20;;;13.70;91.30;;;;;;964114;145;27306;-74
2022/05/09 01:55:41;;;;;;;6.13;5.50;;;13.70;91.40;;;;;;942480;149;27389;-73
2022/05/09 01:58:08;;;;;;;7.30;5.20;;;13.60;91.50;;;;;;964479;146;27334;-73
2022/05/09 02:00:35;;;;;;;5.47;4.93;;;13.60;91.50;;;;;;964405;146;27291;-73
2022/05/09 02:03:01;;;;;;;4.90;4.50;;;13.50;91.60;;;;;;945289;148;27432;-74
2022/05/09 02:05:28;;;;;;;5.00;4.17;;;13.50;91.60;;;;;;963604;146;28014;-73
2022/05/09 02:07:55;;;;;;;4.80;4.40;;;13.40;91.60;;;;;;946504;148;27317;-73
2022/05/09 02:10:21;;;;;;;5.90;4.63;;;13.40;91.60;;;;;;947794;148;27413;-73
2022/05/09 02:12:47;;;;;;;6.40;4.50;;;13.40;91.70;;;;;;947066;148;27401;-74
2022/05/09 02:15:14;;;;;;;4.50;4.10;;;13.30;91.80;;;;;;964195;146;27409;-73
2022/05/09 02:17:41;;;;;;;4.60;4.13;;;13.30;91.90;;;;;;946454;148;27348;-73
2022/05/09 02:20:07;;;;;;;5.10;4.50;;;13.20;92.00;;;;;;963841;145;27299;-73
2022/05/09 02:22:34;;;;;;;4.87;4.37;;;13.20;92.10;;;;;;946389;148;27355;-73
2022/05/09 02:25:00;;;;;;;4.83;4.30;;;13.20;92.10;;;;;;963964;145;27292;-73
2022/05/09 02:27:27;;;;;;;5.17;4.40;;;13.20;92.20;;;;;;964130;145;27455;-73
2022/05/09 02:29:54;;;;;;;4.60;3.77;;;13.10;92.30;;;;;;966979;145;27345;-74
2022/05/09 02:32:20;;;;;;;4.63;3.80;;;13.10;92.30;;;;;;966634;145;27274;-74
2022/05/09 02:34:47;;;;;;;4.37;3.80;;;13.00;92.30;;;;;;967240;145;27364;-73
2022/05/09 02:37:13;;;;;;;4.23;3.83;;;13.00;92.30;;;;;;967175;145;28108;-73
2022/05/09 02:39:40;;;;;;;5.73;4.00;;;13.00;92.30;;;;;;964381;146;27519;-73
2022/05/09 02:42:07;;;;;;;5.03;4.53;;;12.90;92.30;;;;;;954524;147;27344;-73
2022/05/09 02:44:33;;;;;;;4.10;3.80;;;12.90;92.30;;;;;;946976;148;27370;-74
2022/05/09 02:47:00;;;;;;;4.47;3.83;;;12.90;92.50;;;;;;947249;148;27440;-74
2022/05/09 02:49:26;;;;;;;6.77;4.17;;;12.90;92.50;;;;;;945031;149;27274;-74
2022/05/09 02:51:53;;;;;;;5.17;4.40;;;12.80;92.90;;;;;;946892;148;27466;-74
2022/05/09 02:54:19;;;;;;;4.47;4.07;;;12.80;92.60;;;;;;947846;148;27360;-73
2022/05/09 02:56:46;;;;;;;6.10;4.20;;;12.80;92.60;;;;;;946543;148;27358;-73
2022/05/09 02:59:13;;;;;;;5.67;4.43;;;12.70;92.60;;;;;;946800;148;27413;-73
2022/05/09 03:01:39;;;;;;;4.57;4.13;;;12.70;92.60;;;;;;946710;148;27328;-73
2022/05/09 03:06:51;;;;;;;4.93;4.30;;;12.60;92.70;;;;;;946688;148;27882;-74
2022/05/09 03:09:17;;;;;;;4.10;3.80;;;12.60;92.80;;;;;;946963;148;27371;-74
2022/05/09 03:11:45;;;;;;;4.27;3.87;;;12.50;92.90;;;;;;946759;148;27328;-74
2022/05/09 03:14:10;;;;;;;4.83;3.87;;;12.50;92.90;;;;;;946647;148;27339;-74
2022/05/09 03:16:37;;;;;;;6.43;4.70;;;12.50;92.90;;;;;;946670;148;27309;-74
2022/05/09 03:19:03;;;;;;;4.87;4.07;;;12.50;93.00;;;;;;947594;148;27371;-73
2022/05/09 03:21:30;;;;;;;4.60;4.10;;;12.40;93.10;;;;;;946706;148;27403;-73
2022/05/09 03:23:57;;;;;;;4.57;4.10;;;12.40;93.20;;;;;;964225;146;27362;-74
2022/05/09 03:26:23;;;;;;;7.00;4.37;;;12.40;93.30;;;;;;963880;146;27279;-74
2022/05/09 03:28:50;;;;;;;4.07;3.77;;;12.40;93.30;;;;;;942168;149;27980;-74
2022/05/09 03:31:16;;;;;;;4.37;3.97;;;12.30;93.30;;;;;;963518;146;27315;-73
2022/05/09 03:33:43;;;;;;;6.23;4.47;;;12.30;93.40;;;;;;945592;149;27864;-73
2022/05/09 03:36:10;;;;;;;5.03;4.07;;;12.30;93.40;;;;;;947003;148;27309;-73
2022/05/09 03:38:36;;;;;;;5.20;3.83;;;12.30;93.50;;;;;;945650;148;27441;-73
2022/05/09 03:41:03;;;;;;;4.90;3.90;;;12.30;93.60;;;;;;945687;149;27349;-73
2022/05/09 03:43:29;;;;;;;4.27;3.87;;;12.20;93.60;;;;;;963603;146;27450;-73
2022/05/09 03:45:56;;;;;;;4.37;3.97;;;12.20;93.80;;;;;;941690;149;27373;-74
2022/05/09 03:48:22;;;;;;;6.80;4.43;;;12.20;93.90;;;;;;963211;146;27908;-73
2022/05/09 03:50:49;;;;;;;4.87;4.30;;;12.20;93.90;;;;;;963464;145;27396;-74
2022/05/09 03:53:16;;;;;;;3.97;3.63;;;12.20;94.00;;;;;;945246;148;27336;-74
2022/05/09 03:55:42;;;;;;;7.53;4.63;;;12.20;94.00;;;;;;963920;146;27392;-74
2022/05/09 03:58:09;;;;;;;7.47;3.63;;;12.20;94.00;;;;;;963891;146;27338;-74
2022/05/09 04:00:35;;;;;;;4.83;3.63;;;12.20;94.10;;;;;;943700;149;27466;-73
2022/05/09 04:03:02;;;;;;;4.47;4.07;;;12.20;94.20;;;;;;963572;146;27411;-74
2022/05/09 04:05:31;;;;;;;4.70;4.20;;;12.20;94.30;;;;;;964032;146;27396;-74
2022/05/09 04:07:58;;;;;;;6.37;4.33;;;12.20;94.40;;;;;;963363;146;27339;-73
2022/05/09 04:10:24;;;;;;;4.00;3.70;;;12.20;94.40;;;;;;962609;146;27342;-73
2022/05/09 04:12:51;;;;;;;3.93;3.63;;;12.20;94.90;;;;;;947597;148;27478;-73
2022/05/09 04:18:02;;;;;;;7.27;4.20;;;12.30;94.60;;;;;;963493;146;27310;-74
2022/05/09 04:20:29;;;;;;;5.03;3.77;;;12.30;94.50;;;;;;962873;146;27436;-74
2022/05/09 04:22:58;;;;;;;4.27;3.83;;;12.30;94.60;;;;;;962490;146;27439;-74
2022/05/09 04:25:24;;;;;;;5.63;5.03;;;12.40;94.70;;;;;;963239;145;27327;-74
2022/05/09 04:27:51;;;;;;;4.97;4.47;;;12.40;94.70;;;;;;962975;146;27372;-74
2022/05/09 04:30:17;;;;;;;4.30;3.90;;;12.40;94.70;;;;;;945136;148;27345;-74
2022/05/09 04:32:44;;;;;;;5.03;4.23;;;12.50;94.80;;;;;;945671;149;27438;-74
2022/05/09 04:35:21;;;;;;;4.47;4.07;;;12.50;94.80;;;;;;947440;148;27356;-74
2022/05/09 04:37:39;;;;;;;5.37;4.17;;;12.60;94.90;;;;;;942715;148;27333;-74
2022/05/09 04:40:04;;;;;;;4.77;4.20;;;12.60;94.90;;;;;;948089;148;27448;-73
2022/05/09 04:42:30;;;;;;;5.33;4.10;;;12.70;95.00;;;;;;933964;148;27467;-74
2022/05/09 04:44:57;;;;;;;4.60;4.07;;;12.80;95.00;;;;;;934721;149;27381;-74
2022/05/09 04:47:23;;;;;;;4.87;4.30;;;12.80;95.10;;;;;;934362;149;27385;-74
2022/05/09 04:49:50;;;;;;;6.03;4.50;;;12.90;95.10;;;;;;933704;149;27379;-74
2022/05/09 04:52:17;;;;;;;4.87;4.37;;;13.00;95.20;;;;;;934682;149;27688;-74
2022/05/09 04:54:43;;;;;;;7.93;4.13;;;13.10;95.40;;;;;;934577;149;27396;-74
2022/05/09 04:57:10;;;;;;;7.30;4.40;;;13.30;95.90;;;;;;933605;149;27408;-74
2022/05/09 04:59:36;;;;;;;4.87;4.30;;;13.50;96.60;;;;;;934777;150;27466;-74
2022/05/09 05:02:05;;;;;;;5.00;3.87;;;13.70;97.40;;;;;;934498;149;27342;-74
2022/05/09 05:04:30;;;;;;;4.40;3.73;;;14.10;98.10;;;;;;927621;150;27485;-74
2022/05/09 05:06:56;;;;;;;3.92;3.62;;;14.50;98.50;;;;;;943323;148;27310;-74
2022/05/09 05:09:23;;;;;;;4.80;4.03;;;15.00;98.60;;;;;;942577;148;27320;-74
2022/05/09 05:11:49;;;;;;;3.70;3.40;;;15.60;98.50;;;;;;942547;149;27365;-74
2022/05/09 05:14:16;;;;;;;3.50;3.30;;;16.10;98.20;;;;;;935613;149;27346;-74
2022/05/09 05:17:00;;;;;;;3.67;3.10;;;16.70;97.50;;;;;;927628;150;27361;-74
2022/05/09 05:19:31;;;;;;;3.62;3.33;;;17.30;96.50;;;;;;925497;150;27279;-74
2022/05/09 05:21:59;;;;;;;3.83;3.45;;;17.90;95.50;;;;;;950067;147;27403;-74
2022/05/09 05:24:28;;;;;;;3.62;3.33;;;18.40;94.60;;;;;;948612;146;27355;-74
2022/05/09 05:26:56;;;;;;;3.90;3.60;;;19.00;93.70;;;;;;950171;146;27719;-74
2022/05/09 05:29:21;;;;;;;3.42;3.12;;;19.50;92.80;;;;;;948872;146;27303;-74
2022/05/09 05:31:48;;;;;;;3.50;3.25;;;20.00;91.50;;;;;;933320;150;27322;-75
2022/05/09 05:34:15;;;;;;;6.83;3.55;;;20.40;90.70;;;;;;949667;147;27461;-75
2022/05/09 05:36:41;;;;;;;3.05;2.85;;;20.90;90.00;;;;;;927283;150;27438;-75
2022/05/09 05:39:09;;;;;;;7.33;3.50;;;21.40;88.70;;;;;;933524;150;27273;-75
2022/05/09 05:41:34;;;;;;;3.47;3.17;;;21.90;87.20;;;;;;954506;145;27370;-75
2022/05/09 05:44:06;;;;;;;3.62;3.05;;;22.40;85.10;;;;;;965055;145;27355;-75
2022/05/09 05:46:30;;;;;;;3.02;2.65;;;23.00;83.50;;;;;;963217;146;27984;-75
2022/05/09 05:48:57;;;;;;;2.60;2.40;;;23.60;82.00;;;;;;947562;148;27501;-75
2022/05/09 05:51:24;;;;;;;3.05;2.67;;;24.10;79.60;;;;;;966792;145;27361;-75
2022/05/09 05:53:50;;;;;;;3.10;2.90;;;24.70;77.30;;;;;;947525;148;27276;-75
2022/05/09 05:56:17;;;;;;;3.67;3.37;;;25.20;74.60;;;;;;963426;146;27328;-75
2022/05/09 05:58:43;;;;;;;3.20;3.00;;;25.70;71.70;;;;;;943389;149;27408;-75
2022/05/09 06:01:10;;;;;;;3.25;3.05;;;26.10;69.90;;;;;;963690;146;27331;-76
2022/05/09 06:03:37;;;;;;;3.27;2.72;;;26.50;68.30;;;;;;947400;148;27392;-75
2022/05/09 06:06:03;;;;;;;3.35;2.92;;;26.80;67.50;;;;;;946655;148;27325;-76
2022/05/09 06:08:30;;;;;;;4.90;3.15;;;27.20;66.70;;;;;;966385;145;27422;-76
2022/05/09 06:10:56;;;;;;;3.62;3.25;;;27.60;65.80;;;;;;963551;146;27309;-75
2022/05/09 06:13:23;;;;;;;3.10;2.67;;;28.00;64.30;;;;;;944964;149;27343;-75
2022/05/09 06:15:50;;;;;;;3.08;2.85;;;28.30;63.10;;;;;;947519;148;27464;-75
2022/05/09 06:18:16;;;;;;;3.27;2.77;;;28.70;62.00;;;;;;947146;148;27333;-75
2022/05/09 06:20:43;;;;;;;3.00;2.33;;;29.10;60.90;;;;;;964824;145;27364;-75
2022/05/09 06:23:10;;;;;;;3.80;2.72;;;29.40;60.00;;;;;;964472;145;27268;-75
2022/05/09 06:25:36;;;;;;;4.67;3.02;;;29.70;58.60;;;;;;947445;148;27399;-75
2022/05/09 06:28:02;;;;;;;3.50;3.20;;;30.00;57.70;;;;;;946518;149;27358;-75
2022/05/09 06:30:29;;;;;;;4.17;3.60;;;30.30;57.60;;;;;;964646;146;27429;-75
2022/05/09 06:32:56;;;;;;;2.85;2.50;;;30.50;57.00;;;;;;962030;146;27281;-75
2022/05/09 06:35:23;;;;;;;3.10;2.60;;;30.90;56.60;;;;;;950204;148;27347;-75
2022/05/09 06:37:55;;;;;;;3.27;2.62;;;31.20;55.70;;;;;;946279;149;27343;-75
2022/05/09 06:40:21;;;;;;;3.17;2.50;;;31.50;55.10;;;;;;963762;146;27334;-75
2022/05/09 06:42:52;;;;;;;3.85;2.45;;;31.90;54.70;;;;;;963763;146;27741;-75
2022/05/09 06:45:14;;;;;;;2.50;2.30;;;32.20;54.00;;;;;;953916;147;27309;-75
2022/05/09 06:47:46;;;;;;;4.05;2.50;;;32.50;53.50;;;;;;963801;146;27229;-75
2022/05/09 06:50:13;;;;;;;2.72;2.52;;;32.80;52.60;;;;;;950583;148;27367;-75
2022/05/09 06:52:41;;;;;;;3.62;2.60;;;33.10;51.80;;;;;;964017;146;27338;-75
2022/05/09 06:55:06;;;;;;;2.70;1.95;;;33.40;51.40;;;;;;944297;148;27450;-75
2022/05/09 06:57:33;;;;;;;2.33;2.12;;;33.60;51.00;;;;;;945957;149;27370;-75
2022/05/09 06:59:59;;;;;;;2.77;2.55;;;33.90;50.70;;;;;;947054;148;27290;-75
2022/05/09 07:02:26;;;;;;;2.80;1.98;;;34.20;50.50;;;;;;943289;149;27328;-75
2022/05/09 07:04:53;;;;;;;2.52;1.92;;;34.60;50.20;;;;;;946394;149;27415;-75
2022/05/09 07:07:19;;;;;;;2.40;1.85;;;35.00;49.80;;;;;;963897;146;27382;-75
2022/05/09 07:09:46;;;;;;;2.58;2.12;;;35.50;49.40;;;;;;942686;149;26265;-75
2022/05/09 07:12:12;;;;;;;2.27;1.70;;;36.00;48.40;;;;;;946345;148;26189;-75
2022/05/09 07:14:39;;;;;;;2.25;1.70;;;36.40;47.70;;;;;;945890;149;26264;-75
2022/05/09 07:17:06;;;;;;;3.08;1.85;;;36.80;47.20;;;;;;964349;145;26329;-75
2022/05/09 07:19:32;;;;;;;2.75;2.00;;;37.10;46.30;;;;;;945624;149;26251;-75
2022/05/09 07:21:59;;;;;;;2.40;2.20;;;37.50;45.60;;;;;;953472;147;26466;-75
2022/05/09 07:24:25;;;;;;;2.35;1.90;;;37.70;44.80;;;;;;952229;148;26295;-75
2022/05/09 07:26:52;;;;;;;1.75;1.45;;;38.00;44.00;;;;;;947093;149;26227;-75
2022/05/09 07:29:19;;;;;;;2.05;1.62;;;38.30;43.50;;;;;;945168;149;27349;-75
2022/05/09 07:31:45;;;;;;;2.25;1.85;;;38.50;42.90;;;;;;963848;146;26661;-76
2022/05/09 07:34:12;;;;;;;2.30;2.00;;;38.70;42.10;;;;;;964864;146;26214;-76
2022/05/09 07:36:38;;;;;;;2.25;1.85;;;38.90;41.30;;;;;;946209;149;26302;-76
2022/05/09 07:39:05;;;;;;;4.08;1.95;;;39.10;40.80;;;;;;963675;146;27425;-75
2022/05/09 07:41:32;;;;;;;2.33;1.90;;;39.20;40.40;;;;;;945010;148;26272;-75
2022/05/09 07:43:58;;;;;;;2.42;1.92;;;39.40;40.10;;;;;;963858;146;27016;-76
2022/05/09 07:46:25;;;;;;;1.65;1.55;;;39.50;39.80;;;;;;963561;145;26222;-76
2022/05/09 07:48:52;;;;;;;1.72;1.60;;;39.60;39.30;;;;;;963855;145;26223;-76
2022/05/09 07:51:18;;;;;;;2.33;1.67;;;39.80;38.70;;;;;;946262;148;26215;-75
2022/05/09 07:53:44;;;;;;;3.05;2.20;;;39.90;38.30;;;;;;964243;145;26301;-75
2022/05/09 07:56:11;;;;;;;1.70;1.60;;;40.00;38.20;;;;;;946954;148;26365;-76
2022/05/09 07:58:38;;;;;;;2.60;2.10;;;40.20;37.70;;;;;;946065;148;26272;-76
2022/05/09 08:01:04;;;;;;;2.10;1.90;;;40.40;37.20;;;;;;947043;148;26229;-76
2022/05/09 08:03:31;;;;;;;4.78;1.80;;;40.50;36.70;;;;;;946916;149;26296;-76
2022/05/09 08:05:59;;;;;;;2.02;1.65;;;40.70;36.60;;;;;;963689;146;26291;-76
2022/05/09 08:08:25;;;;;;;1.85;1.45;;;40.80;36.30;;;;;;962728;146;26294;-76
2022/05/09 08:10:51;;;;;;;3.95;1.57;;;41.00;36.10;;;;;;962633;146;26837;-76
2022/05/09 08:13:17;;;;;;;5.30;1.80;;;41.20;35.90;;;;;;964119;146;26312;-76
2022/05/09 08:15:45;;;;;;;1.72;1.62;;;41.40;35.60;;;;;;963675;146;26308;-76
2022/05/09 08:18:10;;;;;;;2.37;1.80;;;41.60;34.80;;;;;;961218;148;26211;-76
2022/05/09 08:20:38;;;;;;;2.33;1.87;;;41.80;34.50;;;;;;962475;149;26232;-76
2022/05/09 08:23:10;;;;;;;2.20;1.70;;;42.00;33.80;;;;;;962163;149;26256;-76
2022/05/09 08:25:36;;;;;;;3.12;1.70;;;42.10;33.30;;;;;;963143;146;26183;-76
2022/05/09 08:28:02;;;;;;;4.05;1.60;;;42.10;33.10;;;;;;947650;148;26220;-76
2022/05/09 08:30:33;;;;;;;1.37;1.27;;;42.20;33.00;;;;;;963177;146;26277;-76
2022/05/09 08:32:55;;;;;;;2.12;1.45;;;42.20;32.20;;;;;;943300;149;26341;-76
2022/05/09 08:35:22;;;;;;;2.05;1.55;;;42.40;32.80;;;;;;963558;146;26258;-76
2022/05/09 08:37:49;;;;;;;1.40;1.30;;;42.50;32.70;;;;;;963838;146;26208;-76
2022/05/09 08:40:17;;;;;;;2.52;1.92;;;42.80;32.80;;;;;;946488;149;26222;-76
2022/05/09 08:42:54;;;;;;;2.25;1.60;;;43.10;32.30;;;;;;964104;145;26183;-76
2022/05/09 08:45:32;;;;;;;1.87;1.50;;;43.40;32.00;;;;;;931501;150;26319;-76
2022/05/09 08:48:11;;;;;;;1.62;1.45;;;43.60;31.70;;;;;;955449;149;26268;-76
2022/05/09 08:50:55;;;;;;;3.10;1.50;;;43.80;31.30;;;;;;937400;150;26305;-76
2022/05/09 08:53:25;;;;;;;3.60;1.55;;;44.10;30.90;;;;;;955665;149;26276;-76
2022/05/09 08:55:51;;;;;;;2.27;1.75;;;44.20;30.10;;;;;;932978;153;27742;-76
2022/05/09 08:58:40;;;;;;;2.58;1.90;;;44.20;29.90;;;;;;956284;147;26325;-76
2022/05/09 09:01:06;;;;;;;2.22;1.50;;;44.10;29.70;;;;;;939207;149;26283;-76
2022/05/09 09:03:32;;;;;;;2.15;1.80;;;44.00;29.50;;;;;;927420;152;26313;-76
2022/05/09 09:06:20;;;;;;;1.65;1.55;;;43.90;29.30;;;;;;940356;150;26323;-76
2022/05/09 09:09:02;;;;;;;2.02;1.42;;;43.80;29.10;;;;;;898795;155;26374;-76
2022/05/09 09:11:49;;;;;;;3.70;1.70;;;43.80;29.40;;;;;;930268;150;26337;-76
2022/05/09 09:14:21;;;;;;;2.20;1.95;;;43.80;29.50;;;;;;934125;150;26367;-76
2022/05/09 09:17:15;;;;;;;2.25;1.80;;;43.80;29.50;;;;;;950836;147;26255;-76
2022/05/09 09:19:51;;;;;;;2.33;1.67;;;43.90;29.30;;;;;;940663;150;26243;-76
2022/05/09 09:22:38;;;;;;;1.72;1.52;;;44.00;29.00;;;;;;952528;150;26194;-76
2022/05/09 09:25:08;;;;;;;2.27;1.95;;;44.00;28.90;;;;;;945628;148;26312;-76
2022/05/09 09:27:44;;;;;;;1.82;1.60;;;43.90;28.70;;;;;;945417;149;26281;-76
2022/05/09 09:30:13;;;;;;;3.92;1.67;;;43.90;28.60;;;;;;946224;149;26386;-76
2022/05/09 09:32:40;;;;;;;2.10;1.70;;;43.80;28.40;;;;;;946120;151;26792;-76
2022/05/09 09:35:06;;;;;;;2.70;1.60;;;43.80;28.30;;;;;;946863;151;26333;-76
2022/05/09 09:37:33;;;;;;;2.08;1.57;;;43.80;28.40;;;;;;944546;149;26382;-76
2022/05/09 09:39:59;;;;;;;2.00;1.80;;;43.60;28.30;;;;;;946936;151;26193;-76
2022/05/09 09:42:26;;;;;;;2.10;1.90;;;43.40;28.00;;;;;;946636;151;26272;-76
2022/05/09 09:44:58;;;;;;;1.70;1.60;;;43.30;27.90;;;;;;943151;149;26299;-76
2022/05/09 09:47:19;;;;;;;1.67;1.57;;;43.10;28.10;;;;;;938906;152;26330;-76
2022/05/09 09:49:48;;;;;;;1.65;1.55;;;42.90;28.20;;;;;;941111;152;26326;-76
2022/05/09 09:52:21;;;;;;;1.50;1.37;;;42.70;28.20;;;;;;941149;152;26284;-76
2022/05/09 09:54:50;;;;;;;2.10;1.72;;;42.40;28.20;;;;;;940485;152;26376;-76
2022/05/09 09:57:19;;;;;;;1.98;1.52;;;42.20;27.70;;;;;;940321;152;26339;-76
2022/05/09 09:59:46;;;;;;;2.25;1.57;;;41.90;28.30;;;;;;941095;152;26245;-76
2022/05/09 10:02:24;;;;;;;3.02;1.57;;;41.50;28.00;;;;;;940874;152;26346;-76
2022/05/09 10:04:51;;;;;;;1.80;1.70;;;41.10;28.00;;;;;;938445;151;26292;-76
2022/05/09 10:07:30;;;;;;;1.77;1.60;;;40.70;28.20;;;;;;938813;152;26252;-76
2022/05/09 10:10:17;;;;;;;1.70;1.60;;;40.30;28.10;;;;;;939149;151;26311;-76
2022/05/09 10:12:48;;;;;;;3.00;1.75;;;39.90;28.20;;;;;;938526;151;26213;-76
2022/05/09 10:15:22;;;;;;;2.00;1.77;;;39.50;28.30;;;;;;936697;151;26277;-76
2022/05/09 10:17:49;;;;;;;2.08;1.60;;;39.00;28.30;;;;;;931278;150;26208;-75
2022/05/09 10:20:40;;;;;;;2.50;1.80;;;38.60;28.60;;;;;;943190;150;27137;-75
2022/05/09 10:26:00;;;;;;;1.92;1.60;;;37.70;28.70;;;;;;939936;149;26315;-75
2022/05/09 10:28:27;;;;;;;2.27;2.02;;;37.20;28.90;;;;;;938312;149;28054;-75
2022/05/09 10:30:53;;;;;;;2.52;1.90;;;36.70;28.90;;;;;;939097;152;27450;-75
2022/05/09 10:33:37;;;;;;;2.52;1.87;;;36.30;28.90;;;;;;938914;149;27448;-75
2022/05/09 10:36:01;;;;;;;2.83;1.90;;;35.70;29.20;;;;;;940024;150;27632;-75
2022/05/09 10:38:33;;;;;;;2.05;1.87;;;35.10;29.40;;;;;;939465;149;27334;-75
2022/05/09 10:41:03;;;;;;;2.30;2.10;;;34.60;29.90;;;;;;939287;149;27473;-75
2022/05/09 10:43:27;;;;;;;2.50;2.30;;;34.30;30.00;;;;;;938365;152;27401;-75
2022/05/09 10:45:53;;;;;;;2.47;2.10;;;33.90;30.10;;;;;;941102;149;27381;-75
2022/05/09 10:48:20;;;;;;;2.17;1.90;;;33.50;30.30;;;;;;942825;148;27279;-75
2022/05/09 10:50:49;;;;;;;2.30;2.10;;;33.10;30.70;;;;;;940829;148;27296;-75
2022/05/09 10:53:34;;;;;;;2.10;1.90;;;32.90;31.40;;;;;;940048;148;27362;-75
2022/05/09 10:56:12;;;;;;;2.42;2.22;;;32.70;31.90;;;;;;942623;149;28672;-75
2022/05/09 10:58:48;;;;;;;2.05;1.82;;;32.40;32.00;;;;;;942909;148;27474;-75
2022/05/09 11:01:17;;;;;;;1.60;1.50;;;32.20;32.30;;;;;;942498;148;27390;-75
2022/05/09 11:03:45;;;;;;;1.80;1.70;;;32.00;32.40;;;;;;939220;149;27417;-75
2022/05/09 11:06:25;;;;;;;1.77;1.40;;;31.80;32.60;;;;;;942533;149;27495;-75
2022/05/09 11:09:03;;;;;;;2.55;2.22;;;31.60;32.80;;;;;;942142;149;27427;-75
2022/05/09 11:11:51;;;;;;;2.10;1.90;;;31.40;33.10;;;;;;942143;148;27449;-75
2022/05/09 11:14:34;;;;;;;3.10;1.60;;;31.20;33.20;;;;;;919947;149;27365;-75
2022/05/09 11:17:01;;;;;;;1.90;1.80;;;31.10;33.30;;;;;;941356;148;27366;-75
2022/05/09 11:19:46;;;;;;;1.85;1.72;;;31.00;33.30;;;;;;942209;148;27299;-75
2022/05/09 11:22:19;;;;;;;1.80;1.70;;;30.90;33.60;;;;;;942111;149;27322;-75
2022/05/09 11:25:07;;;;;;;1.98;1.85;;;30.70;33.80;;;;;;941009;148;27345;-75
2022/05/09 11:27:55;;;;;;;1.65;1.55;;;30.60;34.10;;;;;;941619;149;27320;-75
2022/05/09 11:30:33;;;;;;;2.02;1.80;;;30.50;34.30;;;;;;941374;148;27370;-75
2022/05/09 11:33:06;;;;;;;1.75;1.55;;;30.40;34.30;;;;;;941105;149;27482;-75
2022/05/09 11:35:35;;;;;;;1.90;1.80;;;30.30;34.50;;;;;;915831;149;27333;-75
2022/05/09 11:38:19;;;;;;;2.08;1.92;;;30.20;34.60;;;;;;941483;148;28327;-75
2022/05/09 11:40:52;;;;;;;1.98;1.80;;;30.20;34.70;;;;;;942440;148;27420;-75
2022/05/09 11:43:32;;;;;;;1.98;1.77;;;30.10;34.60;;;;;;942063;148;27349;-75
2022/05/09 11:46:05;;;;;;;1.90;1.77;;;30.00;33.80;;;;;;940797;148;27462;-75
2022/05/09 11:49:09;;;;;;;2.08;1.82;;;30.00;34.60;;;;;;942335;148;27337;-75
2022/05/09 11:51:42;;;;;;;5.53;2.00;;;29.90;34.80;;;;;;941503;148;27918;-75
2022/05/09 11:54:08;;;;;;;2.33;2.00;;;29.90;34.90;;;;;;941570;149;27358;-75
2022/05/09 11:56:35;;;;;;;3.98;1.82;;;29.80;35.10;;;;;;941437;149;27362;-75
2022/05/09 11:59:03;;;;;;;1.77;1.67;;;29.90;35.30;;;;;;942553;149;27373;-75
2022/05/09 12:01:59;;;;;;;2.77;1.90;;;30.00;35.50;;;;;;941998;149;27357;-75
2022/05/09 12:04:40;;;;;;;1.75;1.65;;;30.10;35.50;;;;;;942759;149;27385;-75
2022/05/09 12:07:22;;;;;;;1.98;1.87;;;30.20;35.50;;;;;;942229;149;27266;-75
2022/05/09 12:10:01;;;;;;;3.12;1.95;;;30.30;35.00;;;;;;942176;149;27312;-75
2022/05/09 12:12:43;;;;;;;5.17;1.80;;;30.40;34.90;;;;;;943374;149;27336;-75
2022/05/09 12:15:12;;;;;;;1.70;1.60;;;30.40;34.70;;;;;;943175;149;27374;-75
2022/05/09 12:17:53;;;;;;;1.98;1.87;;;30.30;34.50;;;;;;941023;149;27280;-75
2022/05/09 12:20:13;;;;;;;1.98;1.67;;;30.30;34.60;;;;;;941480;149;27439;-75
2022/05/09 12:22:40;;;;;;;2.00;1.90;;;30.30;34.70;;;;;;938678;149;27348;-75
2022/05/09 12:25:09;;;;;;;1.60;1.50;;;30.30;35.00;;;;;;943425;149;27432;-75
2022/05/09 12:27:41;;;;;;;1.77;1.67;;;30.30;35.00;;;;;;951042;147;27302;-75
2022/05/09 12:30:32;;;;;;;2.17;1.62;;;30.40;35.00;;;;;;950697;147;27315;-75
2022/05/09 12:32:59;;;;;;;1.90;1.80;;;30.50;35.10;;;;;;927312;150;27411;-75
2022/05/09 12:35:26;;;;;;;2.35;1.90;;;30.60;35.00;;;;;;950832;147;27415;-75
2022/05/09 12:37:52;;;;;;;1.90;1.65;;;30.60;34.80;;;;;;950943;147;27349;-75
2022/05/09 12:40:19;;;;;;;1.50;1.40;;;30.70;34.90;;;;;;950360;147;27495;-75
2022/05/09 12:42:45;;;;;;;1.72;1.30;;;30.80;35.30;;;;;;948959;147;27735;-75
2022/05/09 12:45:12;;;;;;;2.72;2.15;;;30.90;35.70;;;;;;927277;150;27411;-75
2022/05/09 12:47:40;;;;;;;1.85;1.75;;;31.00;34.80;;;;;;953165;148;27301;-75
2022/05/09 12:50:08;;;;;;;3.60;1.90;;;31.10;34.70;;;;;;946205;149;27370;-75
2022/05/09 12:52:34;;;;;;;1.62;1.52;;;31.10;34.50;;;;;;963716;146;27310;-75
2022/05/09 12:57:46;;;;;;;2.75;1.77;;;31.00;34.20;;;;;;965174;146;27311;-75
2022/05/09 13:00:12;;;;;;;2.10;1.77;;;30.90;34.20;;;;;;946020;148;27358;-75
2022/05/09 13:02:39;;;;;;;3.77;1.72;;;30.70;34.10;;;;;;963403;146;27377;-75
2022/05/09 13:05:06;;;;;;;2.40;2.15;;;30.50;34.00;;;;;;947289;149;27353;-75
2022/05/09 13:07:32;;;;;;;2.25;1.92;;;30.30;34.10;;;;;;945047;149;28480;-75
2022/05/09 13:09:59;;;;;;;2.20;1.62;;;30.20;34.30;;;;;;963953;146;27307;-75
2022/05/09 13:12:25;;;;;;;1.75;1.65;;;30.00;34.70;;;;;;964356;146;27253;-75